sensor_id;sensor_type;location;lat;lon;timestamp;temperature;humidity
76857;DHT22;69705;44.686;37.628;2023-06-22T00:00:56;18.49;87.68
76857;DHT22;69705;44.686;37.628;2023-06-22T00:03:24;18.50;87.65
76857;DHT22;69705;44.686;37.628;2023-06-22T00:05:51;18.51;87.79
76857;DHT22;69705;44.686;37.628;2023-06-22T00:08:19;18.50;87.97
76857;DHT22;69705;44.686;37.628;2023-06-22T00:10:46;18.43;87.64
76857;DHT22;69705;44.686;37.628;2023-06-22T00:13:15;18.36;88.47
76857;DHT22;69705;44.686;37.628;2023-06-22T00:15:43;18.35;88.47
76857;DHT22;69705;44.686;37.628;2023-06-22T00:18:10;18.39;88.02
76857;DHT22;69705;44.686;37.628;2023-06-22T00:20:37;18.42;87.62
76857;DHT22;69705;44.686;37.628;2023-06-22T00:23:06;18.49;87.40
76857;DHT22;69705;44.686;37.628;2023-06-22T00:25:38;18.53;87.12
76857;DHT22;69705;44.686;37.628;2023-06-22T00:28:08;18.49;87.22
76857;DHT22;69705;44.686;37.628;2023-06-22T00:30:35;18.44;87.64
76857;DHT22;69705;44.686;37.628;2023-06-22T00:33:02;18.37;87.28
76857;DHT22;69705;44.686;37.628;2023-06-22T00:35:28;18.36;87.99
76857;DHT22;69705;44.686;37.628;2023-06-22T00:37:56;18.33;87.50
76857;DHT22;69705;44.686;37.628;2023-06-22T00:40:30;18.28;88.03
76857;DHT22;69705;44.686;37.628;2023-06-22T00:42:58;18.24;88.58
76857;DHT22;69705;44.686;37.628;2023-06-22T00:45:25;18.20;88.49
76857;DHT22;69705;44.686;37.628;2023-06-22T00:47:53;18.19;88.69
76857;DHT22;69705;44.686;37.628;2023-06-22T00:50:23;18.14;89.25
76857;DHT22;69705;44.686;37.628;2023-06-22T00:52:58;18.09;89.89
76857;DHT22;69705;44.686;37.628;2023-06-22T00:55:25;18.09;89.92
76857;DHT22;69705;44.686;37.628;2023-06-22T00:57:53;18.12;89.73
76857;DHT22;69705;44.686;37.628;2023-06-22T01:00:23;18.19;89.23
76857;DHT22;69705;44.686;37.628;2023-06-22T01:02:51;18.25;89.41
76857;DHT22;69705;44.686;37.628;2023-06-22T01:05:23;18.24;89.59
76857;DHT22;69705;44.686;37.628;2023-06-22T01:08:20;18.27;89.72
76857;DHT22;69705;44.686;37.628;2023-06-22T01:11:01;18.33;89.65
76857;DHT22;69705;44.686;37.628;2023-06-22T01:13:51;18.35;90.02
76857;DHT22;69705;44.686;37.628;2023-06-22T01:16:24;18.42;90.04
76857;DHT22;69705;44.686;37.628;2023-06-22T01:18:55;18.52;89.65
76857;DHT22;69705;44.686;37.628;2023-06-22T01:21:25;18.57;89.35
76857;DHT22;69705;44.686;37.628;2023-06-22T01:24:14;18.63;89.07
76857;DHT22;69705;44.686;37.628;2023-06-22T01:29:16;18.67;89.68
76857;DHT22;69705;44.686;37.628;2023-06-22T01:31:44;18.72;89.47
76857;DHT22;69705;44.686;37.628;2023-06-22T01:34:12;18.72;89.44
76857;DHT22;69705;44.686;37.628;2023-06-22T01:36:40;18.76;89.57
76857;DHT22;69705;44.686;37.628;2023-06-22T01:39:07;18.80;89.19
76857;DHT22;69705;44.686;37.628;2023-06-22T01:41:36;18.88;88.90
76857;DHT22;69705;44.686;37.628;2023-06-22T01:44:07;18.87;88.89
76857;DHT22;69705;44.686;37.628;2023-06-22T01:46:36;18.93;89.08
76857;DHT22;69705;44.686;37.628;2023-06-22T01:49:04;18.99;89.04
76857;DHT22;69705;44.686;37.628;2023-06-22T01:51:31;19.00;88.76
76857;DHT22;69705;44.686;37.628;2023-06-22T01:54:00;19.07;88.57
76857;DHT22;69705;44.686;37.628;2023-06-22T01:56:27;19.11;88.60
76857;DHT22;69705;44.686;37.628;2023-06-22T02:01:39;19.22;87.89
76857;DHT22;69705;44.686;37.628;2023-06-22T02:04:12;19.28;87.54
76857;DHT22;69705;44.686;37.628;2023-06-22T02:06:43;19.30;87.32
76857;DHT22;69705;44.686;37.628;2023-06-22T02:09:15;19.39;86.78
76857;DHT22;69705;44.686;37.628;2023-06-22T02:11:44;19.43;86.74
76857;DHT22;69705;44.686;37.628;2023-06-22T02:14:13;19.47;86.70
76857;DHT22;69705;44.686;37.628;2023-06-22T02:16:40;19.52;86.35
76857;DHT22;69705;44.686;37.628;2023-06-22T02:19:08;19.58;85.54
76857;DHT22;69705;44.686;37.628;2023-06-22T02:21:35;19.67;85.66
76857;DHT22;69705;44.686;37.628;2023-06-22T02:24:07;19.68;85.42
76857;DHT22;69705;44.686;37.628;2023-06-22T02:26:33;19.67;85.50
76857;DHT22;69705;44.686;37.628;2023-06-22T02:29:02;19.66;85.44
76857;DHT22;69705;44.686;37.628;2023-06-22T02:31:28;19.66;85.42
76857;DHT22;69705;44.686;37.628;2023-06-22T02:33:58;19.63;85.35
76857;DHT22;69705;44.686;37.628;2023-06-22T02:36:25;19.67;85.27
76857;DHT22;69705;44.686;37.628;2023-06-22T02:38:55;19.71;85.29
76857;DHT22;69705;44.686;37.628;2023-06-22T02:41:25;19.71;85.29
76857;DHT22;69705;44.686;37.628;2023-06-22T02:43:51;19.70;84.87
76857;DHT22;69705;44.686;37.628;2023-06-22T02:46:19;19.63;85.58
76857;DHT22;69705;44.686;37.628;2023-06-22T02:48:46;19.60;86.06
76857;DHT22;69705;44.686;37.628;2023-06-22T02:51:13;19.61;86.04
76857;DHT22;69705;44.686;37.628;2023-06-22T02:53:41;19.63;86.54
76857;DHT22;69705;44.686;37.628;2023-06-22T02:56:12;19.66;86.72
76857;DHT22;69705;44.686;37.628;2023-06-22T02:58:40;19.65;86.80
76857;DHT22;69705;44.686;37.628;2023-06-22T03:01:10;19.66;87.12
76857;DHT22;69705;44.686;37.628;2023-06-22T03:03:40;19.71;86.85
76857;DHT22;69705;44.686;37.628;2023-06-22T03:06:07;19.74;86.96
76857;DHT22;69705;44.686;37.628;2023-06-22T03:08:34;19.77;86.86
76857;DHT22;69705;44.686;37.628;2023-06-22T03:11:00;19.79;87.16
76857;DHT22;69705;44.686;37.628;2023-06-22T03:13:27;19.83;87.06
76857;DHT22;69705;44.686;37.628;2023-06-22T03:15:54;19.88;87.21
76857;DHT22;69705;44.686;37.628;2023-06-22T03:18:20;19.92;87.23
76857;DHT22;69705;44.686;37.628;2023-06-22T03:20:48;19.97;87.11
76857;DHT22;69705;44.686;37.628;2023-06-22T03:23:15;20.02;87.15
76857;DHT22;69705;44.686;37.628;2023-06-22T03:25:42;20.09;87.08
76857;DHT22;69705;44.686;37.628;2023-06-22T03:28:11;20.15;86.61
76857;DHT22;69705;44.686;37.628;2023-06-22T03:30:37;20.17;86.75
76857;DHT22;69705;44.686;37.628;2023-06-22T03:33:09;20.22;86.80
76857;DHT22;69705;44.686;37.628;2023-06-22T03:35:35;20.30;86.47
76857;DHT22;69705;44.686;37.628;2023-06-22T03:38:02;20.39;85.61
76857;DHT22;69705;44.686;37.628;2023-06-22T03:40:30;20.48;85.05
76857;DHT22;69705;44.686;37.628;2023-06-22T03:43:02;20.55;84.54
76857;DHT22;69705;44.686;37.628;2023-06-22T03:45:30;20.63;85.07
76857;DHT22;69705;44.686;37.628;2023-06-22T03:47:57;20.71;85.30
76857;DHT22;69705;44.686;37.628;2023-06-22T03:50:24;20.80;84.11
76857;DHT22;69705;44.686;37.628;2023-06-22T03:52:50;20.89;84.14
76857;DHT22;69705;44.686;37.628;2023-06-22T03:55:21;20.95;83.91
76857;DHT22;69705;44.686;37.628;2023-06-22T03:57:48;21.06;84.08
76857;DHT22;69705;44.686;37.628;2023-06-22T04:00:15;21.14;83.74
76857;DHT22;69705;44.686;37.628;2023-06-22T04:02:44;21.23;83.10
76857;DHT22;69705;44.686;37.628;2023-06-22T04:05:11;21.28;81.63
76857;DHT22;69705;44.686;37.628;2023-06-22T04:07:37;21.38;81.75
76857;DHT22;69705;44.686;37.628;2023-06-22T04:10:05;21.46;80.94
76857;DHT22;69705;44.686;37.628;2023-06-22T04:12:32;21.57;80.09
76857;DHT22;69705;44.686;37.628;2023-06-22T04:14:59;21.64;80.32
76857;DHT22;69705;44.686;37.628;2023-06-22T04:17:25;21.69;78.37
76857;DHT22;69705;44.686;37.628;2023-06-22T04:19:52;21.78;79.43
76857;DHT22;69705;44.686;37.628;2023-06-22T04:22:18;21.85;78.89
76857;DHT22;69705;44.686;37.628;2023-06-22T04:24:45;21.94;78.48
76857;DHT22;69705;44.686;37.628;2023-06-22T04:27:11;22.03;79.17
76857;DHT22;69705;44.686;37.628;2023-06-22T04:29:43;22.09;78.12
76857;DHT22;69705;44.686;37.628;2023-06-22T04:32:17;22.20;77.25
76857;DHT22;69705;44.686;37.628;2023-06-22T04:34:44;22.26;76.54
76857;DHT22;69705;44.686;37.628;2023-06-22T04:37:10;22.35;76.01
76857;DHT22;69705;44.686;37.628;2023-06-22T04:39:44;22.46;74.51
76857;DHT22;69705;44.686;37.628;2023-06-22T04:42:12;22.52;75.79
76857;DHT22;69705;44.686;37.628;2023-06-22T04:44:43;22.61;75.61
76857;DHT22;69705;44.686;37.628;2023-06-22T04:47:10;22.68;75.60
76857;DHT22;69705;44.686;37.628;2023-06-22T04:49:37;22.73;71.16
76857;DHT22;69705;44.686;37.628;2023-06-22T04:52:05;22.84;70.77
76857;DHT22;69705;44.686;37.628;2023-06-22T04:54:33;22.95;73.94
76857;DHT22;69705;44.686;37.628;2023-06-22T04:57:04;23.03;73.28
76857;DHT22;69705;44.686;37.628;2023-06-22T04:59:36;23.13;72.37
76857;DHT22;69705;44.686;37.628;2023-06-22T05:02:05;23.22;72.00
76857;DHT22;69705;44.686;37.628;2023-06-22T05:04:32;23.31;71.47
76857;DHT22;69705;44.686;37.628;2023-06-22T05:06:59;23.38;71.32
76857;DHT22;69705;44.686;37.628;2023-06-22T05:09:26;23.44;70.72
76857;DHT22;69705;44.686;37.628;2023-06-22T05:11:53;23.53;69.69
76857;DHT22;69705;44.686;37.628;2023-06-22T05:14:20;23.62;69.96
76857;DHT22;69705;44.686;37.628;2023-06-22T05:16:46;23.69;70.61
76857;DHT22;69705;44.686;37.628;2023-06-22T05:19:13;23.83;70.00
76857;DHT22;69705;44.686;37.628;2023-06-22T05:21:39;23.88;70.31
76857;DHT22;69705;44.686;37.628;2023-06-22T05:24:06;23.92;69.36
76857;DHT22;69705;44.686;37.628;2023-06-22T05:26:33;23.99;67.33
76857;DHT22;69705;44.686;37.628;2023-06-22T05:29:01;24.10;69.76
76857;DHT22;69705;44.686;37.628;2023-06-22T05:31:29;24.17;68.62
76857;DHT22;69705;44.686;37.628;2023-06-22T05:33:56;24.25;66.23
76857;DHT22;69705;44.686;37.628;2023-06-22T05:36:22;24.31;67.46
76857;DHT22;69705;44.686;37.628;2023-06-22T05:38:52;24.41;67.15
76857;DHT22;69705;44.686;37.628;2023-06-22T05:41:19;24.44;68.09
76857;DHT22;69705;44.686;37.628;2023-06-22T05:43:46;24.46;67.22
76857;DHT22;69705;44.686;37.628;2023-06-22T05:46:13;24.53;65.88
76857;DHT22;69705;44.686;37.628;2023-06-22T05:48:40;24.58;64.56
76857;DHT22;69705;44.686;37.628;2023-06-22T05:51:06;24.62;65.40
76857;DHT22;69705;44.686;37.628;2023-06-22T05:53:33;24.72;64.10
76857;DHT22;69705;44.686;37.628;2023-06-22T05:56:00;24.77;66.26
76857;DHT22;69705;44.686;37.628;2023-06-22T05:58:26;24.83;66.33
76857;DHT22;69705;44.686;37.628;2023-06-22T06:00:53;24.88;65.47
76857;DHT22;69705;44.686;37.628;2023-06-22T06:03:20;24.95;67.08
76857;DHT22;69705;44.686;37.628;2023-06-22T06:05:46;25.04;66.04
76857;DHT22;69705;44.686;37.628;2023-06-22T06:08:14;25.09;64.31
76857;DHT22;69705;44.686;37.628;2023-06-22T06:10:40;25.15;63.76
76857;DHT22;69705;44.686;37.628;2023-06-22T06:13:07;25.24;63.61
76857;DHT22;69705;44.686;37.628;2023-06-22T06:15:34;25.30;64.22
76857;DHT22;69705;44.686;37.628;2023-06-22T06:18:01;25.35;63.67
76857;DHT22;69705;44.686;37.628;2023-06-22T06:20:31;25.39;62.48
76857;DHT22;69705;44.686;37.628;2023-06-22T06:22:57;25.43;62.70
76857;DHT22;69705;44.686;37.628;2023-06-22T06:25:24;25.46;61.41
76857;DHT22;69705;44.686;37.628;2023-06-22T06:27:52;25.51;62.93
76857;DHT22;69705;44.686;37.628;2023-06-22T06:30:20;25.58;63.85
76857;DHT22;69705;44.686;37.628;2023-06-22T06:32:49;25.62;62.66
76857;DHT22;69705;44.686;37.628;2023-06-22T06:35:15;25.69;62.37
76857;DHT22;69705;44.686;37.628;2023-06-22T06:37:48;25.77;60.38
76857;DHT22;69705;44.686;37.628;2023-06-22T06:40:16;25.83;61.60
76857;DHT22;69705;44.686;37.628;2023-06-22T06:42:45;25.91;62.00
76857;DHT22;69705;44.686;37.628;2023-06-22T06:45:15;26.01;61.87
76857;DHT22;69705;44.686;37.628;2023-06-22T06:47:42;26.08;61.70
76857;DHT22;69705;44.686;37.628;2023-06-22T06:50:09;26.15;60.58
76857;DHT22;69705;44.686;37.628;2023-06-22T06:52:36;26.13;59.97
76857;DHT22;69705;44.686;37.628;2023-06-22T06:55:03;26.18;60.14
76857;DHT22;69705;44.686;37.628;2023-06-22T06:57:30;26.24;59.86
76857;DHT22;69705;44.686;37.628;2023-06-22T06:59:58;26.34;60.12
76857;DHT22;69705;44.686;37.628;2023-06-22T07:02:26;26.42;58.93
76857;DHT22;69705;44.686;37.628;2023-06-22T07:04:54;26.48;57.18
76857;DHT22;69705;44.686;37.628;2023-06-22T07:07:24;26.56;57.16
76857;DHT22;69705;44.686;37.628;2023-06-22T07:09:50;26.61;58.06
76857;DHT22;69705;44.686;37.628;2023-06-22T07:12:16;26.67;59.57
76857;DHT22;69705;44.686;37.628;2023-06-22T07:14:43;26.73;59.61
76857;DHT22;69705;44.686;37.628;2023-06-22T07:17:10;26.78;58.86
76857;DHT22;69705;44.686;37.628;2023-06-22T07:19:36;26.85;58.17
76857;DHT22;69705;44.686;37.628;2023-06-22T07:22:03;26.95;58.78
76857;DHT22;69705;44.686;37.628;2023-06-22T07:24:29;27.08;58.74
76857;DHT22;69705;44.686;37.628;2023-06-22T07:26:56;27.19;55.68
76857;DHT22;69705;44.686;37.628;2023-06-22T07:29:25;27.30;55.65
76857;DHT22;69705;44.686;37.628;2023-06-22T07:31:53;27.38;57.23
76857;DHT22;69705;44.686;37.628;2023-06-22T07:34:20;27.43;57.51
76857;DHT22;69705;44.686;37.628;2023-06-22T07:36:46;27.49;55.34
76857;DHT22;69705;44.686;37.628;2023-06-22T07:39:13;27.56;56.93
76857;DHT22;69705;44.686;37.628;2023-06-22T07:41:41;27.54;54.36
76857;DHT22;69705;44.686;37.628;2023-06-22T07:44:08;27.61;55.22
76857;DHT22;69705;44.686;37.628;2023-06-22T07:46:35;27.67;55.00
76857;DHT22;69705;44.686;37.628;2023-06-22T07:49:02;27.72;54.87
76857;DHT22;69705;44.686;37.628;2023-06-22T07:51:29;27.79;53.86
76857;DHT22;69705;44.686;37.628;2023-06-22T07:53:56;27.87;54.07
76857;DHT22;69705;44.686;37.628;2023-06-22T07:56:23;27.97;55.36
76857;DHT22;69705;44.686;37.628;2023-06-22T07:58:49;28.04;51.29
76857;DHT22;69705;44.686;37.628;2023-06-22T08:01:16;28.17;54.24
76857;DHT22;69705;44.686;37.628;2023-06-22T08:03:43;28.29;54.22
76857;DHT22;69705;44.686;37.628;2023-06-22T08:06:10;28.29;52.67
76857;DHT22;69705;44.686;37.628;2023-06-22T08:08:36;28.39;53.62
76857;DHT22;69705;44.686;37.628;2023-06-22T08:11:03;28.40;54.01
76857;DHT22;69705;44.686;37.628;2023-06-22T08:13:30;28.10;50.64
76857;DHT22;69705;44.686;37.628;2023-06-22T08:15:57;28.13;49.79
76857;DHT22;69705;44.686;37.628;2023-06-22T08:18:23;28.23;50.90
76857;DHT22;69705;44.686;37.628;2023-06-22T08:20:50;28.29;50.18
76857;DHT22;69705;44.686;37.628;2023-06-22T08:23:17;28.43;52.65
76857;DHT22;69705;44.686;37.628;2023-06-22T08:25:43;28.49;53.22
76857;DHT22;69705;44.686;37.628;2023-06-22T08:28:10;28.65;52.65
76857;DHT22;69705;44.686;37.628;2023-06-22T08:30:37;28.75;51.93
76857;DHT22;69705;44.686;37.628;2023-06-22T08:33:03;28.85;49.84
76857;DHT22;69705;44.686;37.628;2023-06-22T08:35:30;28.93;51.50
76857;DHT22;69705;44.686;37.628;2023-06-22T08:37:56;28.99;51.33
76857;DHT22;69705;44.686;37.628;2023-06-22T08:40:24;29.07;51.21
76857;DHT22;69705;44.686;37.628;2023-06-22T08:42:51;29.23;50.61
76857;DHT22;69705;44.686;37.628;2023-06-22T08:45:18;29.26;50.99
76857;DHT22;69705;44.686;37.628;2023-06-22T08:47:44;29.38;49.88
76857;DHT22;69705;44.686;37.628;2023-06-22T08:50:11;29.44;49.66
76857;DHT22;69705;44.686;37.628;2023-06-22T08:52:40;29.47;48.90
76857;DHT22;69705;44.686;37.628;2023-06-22T08:55:10;29.42;47.63
76857;DHT22;69705;44.686;37.628;2023-06-22T08:57:36;29.49;49.66
76857;DHT22;69705;44.686;37.628;2023-06-22T09:00:09;29.60;48.35
76857;DHT22;69705;44.686;37.628;2023-06-22T09:02:46;29.70;50.10
76857;DHT22;69705;44.686;37.628;2023-06-22T09:05:13;29.81;50.60
76857;DHT22;69705;44.686;37.628;2023-06-22T09:07:40;29.96;50.70
76857;DHT22;69705;44.686;37.628;2023-06-22T09:10:07;30.16;50.13
76857;DHT22;69705;44.686;37.628;2023-06-22T09:12:34;30.30;47.41
76857;DHT22;69705;44.686;37.628;2023-06-22T09:15:01;30.48;49.50
76857;DHT22;69705;44.686;37.628;2023-06-22T09:17:29;30.69;48.19
76857;DHT22;69705;44.686;37.628;2023-06-22T09:19:56;30.64;42.81
76857;DHT22;69705;44.686;37.628;2023-06-22T09:22:22;30.42;45.61
76857;DHT22;69705;44.686;37.628;2023-06-22T09:24:49;30.41;45.25
76857;DHT22;69705;44.686;37.628;2023-06-22T09:27:15;30.27;42.98
76857;DHT22;69705;44.686;37.628;2023-06-22T09:29:42;30.21;43.74
76857;DHT22;69705;44.686;37.628;2023-06-22T09:32:08;30.16;46.54
76857;DHT22;69705;44.686;37.628;2023-06-22T09:34:39;30.17;44.46
76857;DHT22;69705;44.686;37.628;2023-06-22T09:37:06;30.30;43.22
76857;DHT22;69705;44.686;37.628;2023-06-22T09:39:32;30.52;41.45
76857;DHT22;69705;44.686;37.628;2023-06-22T09:42:00;30.64;44.45
76857;DHT22;69705;44.686;37.628;2023-06-22T09:44:26;30.84;47.55
76857;DHT22;69705;44.686;37.628;2023-06-22T09:46:53;30.30;43.90
76857;DHT22;69705;44.686;37.628;2023-06-22T09:49:20;30.08;44.91
76857;DHT22;69705;44.686;37.628;2023-06-22T09:51:46;30.40;44.90
76857;DHT22;69705;44.686;37.628;2023-06-22T09:54:13;30.61;44.67
76857;DHT22;69705;44.686;37.628;2023-06-22T09:56:39;30.37;44.27
76857;DHT22;69705;44.686;37.628;2023-06-22T09:59:06;29.79;43.44
76857;DHT22;69705;44.686;37.628;2023-06-22T10:01:33;29.93;45.90
76857;DHT22;69705;44.686;37.628;2023-06-22T10:03:59;30.21;41.52
76857;DHT22;69705;44.686;37.628;2023-06-22T10:06:26;30.49;45.92
76857;DHT22;69705;44.686;37.628;2023-06-22T10:08:53;30.54;43.00
76857;DHT22;69705;44.686;37.628;2023-06-22T10:11:20;30.66;44.68
76857;DHT22;69705;44.686;37.628;2023-06-22T10:13:46;30.64;43.32
76857;DHT22;69705;44.686;37.628;2023-06-22T10:16:13;30.21;44.61
76857;DHT22;69705;44.686;37.628;2023-06-22T10:18:39;29.91;45.40
76857;DHT22;69705;44.686;37.628;2023-06-22T10:21:06;30.12;46.11
76857;DHT22;69705;44.686;37.628;2023-06-22T10:23:33;30.39;45.33
76857;DHT22;69705;44.686;37.628;2023-06-22T10:25:59;30.68;46.16
76857;DHT22;69705;44.686;37.628;2023-06-22T10:28:26;30.87;44.67
76857;DHT22;69705;44.686;37.628;2023-06-22T10:30:57;30.94;43.14
76857;DHT22;69705;44.686;37.628;2023-06-22T10:33:24;31.00;43.38
76857;DHT22;69705;44.686;37.628;2023-06-22T10:35:51;31.10;43.25
76857;DHT22;69705;44.686;37.628;2023-06-22T10:38:17;31.12;42.73
76857;DHT22;69705;44.686;37.628;2023-06-22T10:40:44;31.14;40.33
76857;DHT22;69705;44.686;37.628;2023-06-22T10:43:10;31.09;41.57
76857;DHT22;69705;44.686;37.628;2023-06-22T10:45:37;31.11;43.24
76857;DHT22;69705;44.686;37.628;2023-06-22T10:48:04;31.16;44.70
76857;DHT22;69705;44.686;37.628;2023-06-22T10:50:30;31.26;43.71
76857;DHT22;69705;44.686;37.628;2023-06-22T10:52:57;31.41;44.70
76857;DHT22;69705;44.686;37.628;2023-06-22T10:55:24;31.43;43.81
76857;DHT22;69705;44.686;37.628;2023-06-22T10:57:51;31.59;43.73
76857;DHT22;69705;44.686;37.628;2023-06-22T11:00:23;31.29;44.24
76857;DHT22;69705;44.686;37.628;2023-06-22T11:02:51;30.65;44.04
76857;DHT22;69705;44.686;37.628;2023-06-22T11:05:17;30.49;45.28
76857;DHT22;69705;44.686;37.628;2023-06-22T11:07:44;30.60;44.75
76857;DHT22;69705;44.686;37.628;2023-06-22T11:10:12;30.78;44.66
76857;DHT22;69705;44.686;37.628;2023-06-22T11:12:38;31.00;43.39
76857;DHT22;69705;44.686;37.628;2023-06-22T11:15:05;31.13;42.66
76857;DHT22;69705;44.686;37.628;2023-06-22T11:17:32;31.18;43.11
76857;DHT22;69705;44.686;37.628;2023-06-22T11:19:58;31.28;42.73
76857;DHT22;69705;44.686;37.628;2023-06-22T11:22:26;31.29;43.25
76857;DHT22;69705;44.686;37.628;2023-06-22T11:24:53;31.35;43.19
76857;DHT22;69705;44.686;37.628;2023-06-22T11:27:19;31.25;43.36
76857;DHT22;69705;44.686;37.628;2023-06-22T11:29:46;31.33;42.90
76857;DHT22;69705;44.686;37.628;2023-06-22T11:32:12;31.50;43.57
76857;DHT22;69705;44.686;37.628;2023-06-22T11:34:41;31.50;40.20
76857;DHT22;69705;44.686;37.628;2023-06-22T11:37:08;31.46;41.08
76857;DHT22;69705;44.686;37.628;2023-06-22T11:39:34;31.42;42.09
76857;DHT22;69705;44.686;37.628;2023-06-22T11:42:01;31.40;40.61
76857;DHT22;69705;44.686;37.628;2023-06-22T11:44:28;31.39;41.26
76857;DHT22;69705;44.686;37.628;2023-06-22T11:46:54;31.44;40.55
76857;DHT22;69705;44.686;37.628;2023-06-22T11:49:21;31.37;39.77
76857;DHT22;69705;44.686;37.628;2023-06-22T11:51:47;31.46;42.45
76857;DHT22;69705;44.686;37.628;2023-06-22T11:54:15;31.51;40.44
76857;DHT22;69705;44.686;37.628;2023-06-22T11:56:41;31.56;41.33
76857;DHT22;69705;44.686;37.628;2023-06-22T11:59:08;31.60;41.90
76857;DHT22;69705;44.686;37.628;2023-06-22T12:01:35;31.51;38.08
76857;DHT22;69705;44.686;37.628;2023-06-22T12:04:01;31.43;40.54
76857;DHT22;69705;44.686;37.628;2023-06-22T12:06:32;31.58;42.95
76857;DHT22;69705;44.686;37.628;2023-06-22T12:09:00;31.48;42.59
76857;DHT22;69705;44.686;37.628;2023-06-22T12:11:26;31.12;41.44
76857;DHT22;69705;44.686;37.628;2023-06-22T12:13:53;30.97;42.18
76857;DHT22;69705;44.686;37.628;2023-06-22T12:16:19;30.93;38.88
76857;DHT22;69705;44.686;37.628;2023-06-22T12:18:48;30.79;40.53
76857;DHT22;69705;44.686;37.628;2023-06-22T12:21:14;30.91;40.20
76857;DHT22;69705;44.686;37.628;2023-06-22T12:23:41;31.07;40.85
76857;DHT22;69705;44.686;37.628;2023-06-22T12:26:07;31.19;41.07
76857;DHT22;69705;44.686;37.628;2023-06-22T12:28:39;31.28;42.06
76857;DHT22;69705;44.686;37.628;2023-06-22T12:31:06;31.31;41.65
76857;DHT22;69705;44.686;37.628;2023-06-22T12:33:32;31.39;40.91
76857;DHT22;69705;44.686;37.628;2023-06-22T12:35:59;31.37;39.96
76857;DHT22;69705;44.686;37.628;2023-06-22T12:38:25;31.36;39.10
76857;DHT22;69705;44.686;37.628;2023-06-22T12:40:52;31.26;38.40
76857;DHT22;69705;44.686;37.628;2023-06-22T12:43:19;31.27;39.79
76857;DHT22;69705;44.686;37.628;2023-06-22T12:45:45;31.24;40.41
76857;DHT22;69705;44.686;37.628;2023-06-22T12:48:12;31.31;39.19
76857;DHT22;69705;44.686;37.628;2023-06-22T12:50:39;31.29;37.79
76857;DHT22;69705;44.686;37.628;2023-06-22T12:53:05;31.29;39.92
76857;DHT22;69705;44.686;37.628;2023-06-22T12:55:32;31.33;39.71
76857;DHT22;69705;44.686;37.628;2023-06-22T12:57:59;31.34;39.90
76857;DHT22;69705;44.686;37.628;2023-06-22T13:00:25;31.19;40.49
76857;DHT22;69705;44.686;37.628;2023-06-22T13:02:52;31.19;40.72
76857;DHT22;69705;44.686;37.628;2023-06-22T13:05:18;31.20;39.68
76857;DHT22;69705;44.686;37.628;2023-06-22T13:07:45;31.22;37.82
76857;DHT22;69705;44.686;37.628;2023-06-22T13:10:12;31.21;37.24
76857;DHT22;69705;44.686;37.628;2023-06-22T13:12:39;31.22;36.32
76857;DHT22;69705;44.686;37.628;2023-06-22T13:15:06;31.22;38.69
76857;DHT22;69705;44.686;37.628;2023-06-22T13:17:33;31.07;37.64
76857;DHT22;69705;44.686;37.628;2023-06-22T13:19:59;31.02;37.05
76857;DHT22;69705;44.686;37.628;2023-06-22T13:22:28;31.04;39.32
76857;DHT22;69705;44.686;37.628;2023-06-22T13:24:56;30.97;38.27
76857;DHT22;69705;44.686;37.628;2023-06-22T13:27:23;30.93;35.53
76857;DHT22;69705;44.686;37.628;2023-06-22T13:29:50;30.90;38.09
76857;DHT22;69705;44.686;37.628;2023-06-22T13:32:16;30.89;38.38
76857;DHT22;69705;44.686;37.628;2023-06-22T13:34:43;30.80;38.46
76857;DHT22;69705;44.686;37.628;2023-06-22T13:37:10;30.75;38.32
76857;DHT22;69705;44.686;37.628;2023-06-22T13:39:36;30.67;38.53
76857;DHT22;69705;44.686;37.628;2023-06-22T13:42:08;30.64;39.44
76857;DHT22;69705;44.686;37.628;2023-06-22T13:44:35;30.63;39.42
76857;DHT22;69705;44.686;37.628;2023-06-22T13:47:02;30.57;39.75
76857;DHT22;69705;44.686;37.628;2023-06-22T13:49:28;30.49;39.80
76857;DHT22;69705;44.686;37.628;2023-06-22T13:51:55;30.38;41.92
76857;DHT22;69705;44.686;37.628;2023-06-22T13:54:21;30.39;38.19
76857;DHT22;69705;44.686;37.628;2023-06-22T13:56:48;30.34;39.54
76857;DHT22;69705;44.686;37.628;2023-06-22T13:59:15;30.35;40.05
76857;DHT22;69705;44.686;37.628;2023-06-22T14:01:41;30.36;40.31
76857;DHT22;69705;44.686;37.628;2023-06-22T14:04:10;30.34;38.89
76857;DHT22;69705;44.686;37.628;2023-06-22T14:06:38;30.23;37.51
76857;DHT22;69705;44.686;37.628;2023-06-22T14:09:05;30.17;37.81
76857;DHT22;69705;44.686;37.628;2023-06-22T14:11:31;30.09;38.76
76857;DHT22;69705;44.686;37.628;2023-06-22T14:13:58;30.04;38.29
76857;DHT22;69705;44.686;37.628;2023-06-22T14:16:25;30.00;38.15
76857;DHT22;69705;44.686;37.628;2023-06-22T14:18:52;29.94;38.94
76857;DHT22;69705;44.686;37.628;2023-06-22T14:21:18;29.92;40.24
76857;DHT22;69705;44.686;37.628;2023-06-22T14:23:45;29.88;39.25
76857;DHT22;69705;44.686;37.628;2023-06-22T14:26:16;29.82;37.33
76857;DHT22;69705;44.686;37.628;2023-06-22T14:28:46;29.75;37.27
76857;DHT22;69705;44.686;37.628;2023-06-22T14:31:15;29.65;39.21
76857;DHT22;69705;44.686;37.628;2023-06-22T14:33:45;29.61;41.21
76857;DHT22;69705;44.686;37.628;2023-06-22T14:36:13;29.54;39.15
76857;DHT22;69705;44.686;37.628;2023-06-22T14:38:39;29.45;40.20
76857;DHT22;69705;44.686;37.628;2023-06-22T14:41:06;29.39;41.45
76857;DHT22;69705;44.686;37.628;2023-06-22T14:43:32;29.36;42.47
76857;DHT22;69705;44.686;37.628;2023-06-22T14:45:59;29.26;43.60
76857;DHT22;69705;44.686;37.628;2023-06-22T14:48:26;29.13;41.43
76857;DHT22;69705;44.686;37.628;2023-06-22T14:50:53;29.02;39.60
76857;DHT22;69705;44.686;37.628;2023-06-22T14:53:21;28.89;43.52
76857;DHT22;69705;44.686;37.628;2023-06-22T14:55:48;28.77;43.03
76857;DHT22;69705;44.686;37.628;2023-06-22T14:58:15;28.63;41.50
76857;DHT22;69705;44.686;37.628;2023-06-22T15:00:42;28.52;42.79
76857;DHT22;69705;44.686;37.628;2023-06-22T15:03:08;28.44;42.86
76857;DHT22;69705;44.686;37.628;2023-06-22T15:05:37;28.39;42.35
76857;DHT22;69705;44.686;37.628;2023-06-22T15:08:04;28.27;41.59
76857;DHT22;69705;44.686;37.628;2023-06-22T15:10:31;28.15;42.46
76857;DHT22;69705;44.686;37.628;2023-06-22T15:12:57;28.01;41.60
76857;DHT22;69705;44.686;37.628;2023-06-22T15:15:24;27.87;43.48
76857;DHT22;69705;44.686;37.628;2023-06-22T15:17:50;27.82;45.79
76857;DHT22;69705;44.686;37.628;2023-06-22T15:20:17;27.66;43.96
76857;DHT22;69705;44.686;37.628;2023-06-22T15:22:43;27.58;44.03